sensor_id;sensor_type;location;lat;lon;timestamp;pressure;altitude;pressure_sealevel;temperature;humidity
28306;BME280;7516;43.570;1.448;2022-09-01T00:01:52;99648.69;;;22.27;84.87
28306;BME280;7516;43.570;1.448;2022-09-01T00:04:22;99653.50;;;22.25;84.50
28306;BME280;7516;43.570;1.448;2022-09-01T00:06:52;99657.47;;;22.23;84.82
28306;BME280;7516;43.570;1.448;2022-09-01T00:09:22;99654.47;;;22.19;84.18
28306;BME280;7516;43.570;1.448;2022-09-01T00:11:53;99659.25;;;22.17;84.30
28306;BME280;7516;43.570;1.448;2022-09-01T00:14:28;99650.34;;;22.06;84.67
28306;BME280;7516;43.570;1.448;2022-09-01T00:16:56;99654.31;;;22.04;84.83
28306;BME280;7516;43.570;1.448;2022-09-01T00:19:24;99654.53;;;22.02;84.90
28306;BME280;7516;43.570;1.448;2022-09-01T00:21:51;99656.91;;;21.99;85.17
28306;BME280;7516;43.570;1.448;2022-09-01T00:24:19;99653.66;;;21.97;85.17
28306;BME280;7516;43.570;1.448;2022-09-01T00:26:47;99654.22;;;21.99;84.42
28306;BME280;7516;43.570;1.448;2022-09-01T00:29:16;99652.84;;;21.96;84.62
28306;BME280;7516;43.570;1.448;2022-09-01T00:31:44;99659.16;;;21.90;85.60
28306;BME280;7516;43.570;1.448;2022-09-01T00:34:11;99655.31;;;21.81;85.12
28306;BME280;7516;43.570;1.448;2022-09-01T00:36:39;99656.09;;;21.82;85.65
28306;BME280;7516;43.570;1.448;2022-09-01T00:39:06;99650.47;;;21.78;85.59
28306;BME280;7516;43.570;1.448;2022-09-01T00:41:36;99650.97;;;21.75;85.98
28306;BME280;7516;43.570;1.448;2022-09-01T00:44:07;99651.75;;;21.75;85.98
28306;BME280;7516;43.570;1.448;2022-09-01T00:46:44;99654.28;;;21.65;85.87
28306;BME280;7516;43.570;1.448;2022-09-01T00:49:16;99652.19;;;21.67;86.77
28306;BME280;7516;43.570;1.448;2022-09-01T00:51:47;99649.47;;;21.62;87.29
28306;BME280;7516;43.570;1.448;2022-09-01T00:54:19;99641.94;;;21.59;87.52
28306;BME280;7516;43.570;1.448;2022-09-01T00:56:48;99652.03;;;21.57;87.40
28306;BME280;7516;43.570;1.448;2022-09-01T00:59:17;99650.38;;;21.51;87.58
28306;BME280;7516;43.570;1.448;2022-09-01T01:01:48;99642.78;;;21.43;88.44
28306;BME280;7516;43.570;1.448;2022-09-01T01:04:16;99646.97;;;21.39;89.05
28306;BME280;7516;43.570;1.448;2022-09-01T01:06:45;99650.22;;;21.41;88.47
28306;BME280;7516;43.570;1.448;2022-09-01T01:09:15;99652.31;;;21.39;88.52
28306;BME280;7516;43.570;1.448;2022-09-01T01:11:43;99665.00;;;21.32;89.28
28306;BME280;7516;43.570;1.448;2022-09-01T01:14:14;99661.69;;;21.25;90.72
28306;BME280;7516;43.570;1.448;2022-09-01T01:16:44;99657.88;;;21.21;90.83
28306;BME280;7516;43.570;1.448;2022-09-01T01:19:17;99649.66;;;21.22;90.57
28306;BME280;7516;43.570;1.448;2022-09-01T01:22:03;99655.59;;;21.13;91.46
28306;BME280;7516;43.570;1.448;2022-09-01T01:24:51;99658.38;;;21.18;90.87
28306;BME280;7516;43.570;1.448;2022-09-01T01:27:18;99652.13;;;21.12;91.08
28306;BME280;7516;43.570;1.448;2022-09-01T01:29:47;99656.81;;;21.05;91.40
28306;BME280;7516;43.570;1.448;2022-09-01T01:32:15;99644.88;;;21.08;91.61
28306;BME280;7516;43.570;1.448;2022-09-01T01:34:43;99643.19;;;21.01;91.39
28306;BME280;7516;43.570;1.448;2022-09-01T01:37:12;99651.72;;;21.03;91.57
28306;BME280;7516;43.570;1.448;2022-09-01T01:39:41;99645.75;;;20.96;91.91
28306;BME280;7516;43.570;1.448;2022-09-01T01:42:11;99651.41;;;21.00;91.94
28306;BME280;7516;43.570;1.448;2022-09-01T01:44:39;99648.41;;;20.96;92.43
28306;BME280;7516;43.570;1.448;2022-09-01T01:47:11;99646.78;;;20.95;93.14
28306;BME280;7516;43.570;1.448;2022-09-01T01:49:40;99647.84;;;20.94;92.45
28306;BME280;7516;43.570;1.448;2022-09-01T01:52:09;99652.63;;;20.92;92.93
28306;BME280;7516;43.570;1.448;2022-09-01T01:54:42;99650.66;;;20.88;93.43
28306;BME280;7516;43.570;1.448;2022-09-01T01:57:12;99651.69;;;20.87;93.85
28306;BME280;7516;43.570;1.448;2022-09-01T01:59:43;99657.25;;;20.85;93.69
28306;BME280;7516;43.570;1.448;2022-09-01T02:02:10;99655.19;;;20.87;94.39
28306;BME280;7516;43.570;1.448;2022-09-01T02:04:38;99653.38;;;20.76;94.09
28306;BME280;7516;43.570;1.448;2022-09-01T02:07:09;99648.53;;;20.73;95.15
28306;BME280;7516;43.570;1.448;2022-09-01T02:09:38;99650.16;;;20.74;94.41
28306;BME280;7516;43.570;1.448;2022-09-01T02:12:09;99655.16;;;20.71;94.76
28306;BME280;7516;43.570;1.448;2022-09-01T02:14:38;99657.59;;;20.72;95.01
28306;BME280;7516;43.570;1.448;2022-09-01T02:17:05;99667.28;;;20.78;93.95
28306;BME280;7516;43.570;1.448;2022-09-01T02:19:33;99651.28;;;20.78;94.52
28306;BME280;7516;43.570;1.448;2022-09-01T02:22:05;99659.94;;;20.85;94.36
28306;BME280;7516;43.570;1.448;2022-09-01T02:24:36;99660.28;;;20.89;94.11
28306;BME280;7516;43.570;1.448;2022-09-01T02:27:04;99659.94;;;20.85;94.87
28306;BME280;7516;43.570;1.448;2022-09-01T02:29:31;99662.69;;;20.90;93.92
28306;BME280;7516;43.570;1.448;2022-09-01T02:32:00;99664.38;;;20.96;93.86
28306;BME280;7516;43.570;1.448;2022-09-01T02:34:28;99668.91;;;20.96;93.80
28306;BME280;7516;43.570;1.448;2022-09-01T02:36:57;99661.16;;;20.94;94.28
28306;BME280;7516;43.570;1.448;2022-09-01T02:39:26;99661.16;;;20.94;93.93
28306;BME280;7516;43.570;1.448;2022-09-01T02:41:55;99670.19;;;20.93;94.26
28306;BME280;7516;43.570;1.448;2022-09-01T02:44:22;99663.28;;;20.92;94.76
28306;BME280;7516;43.570;1.448;2022-09-01T02:46:54;99660.75;;;20.86;94.71
28306;BME280;7516;43.570;1.448;2022-09-01T02:49:24;99656.00;;;20.88;94.88
28306;BME280;7516;43.570;1.448;2022-09-01T02:51:56;99660.19;;;20.84;94.56
28306;BME280;7516;43.570;1.448;2022-09-01T02:54:24;99664.78;;;20.88;94.29
28306;BME280;7516;43.570;1.448;2022-09-01T02:56:53;99659.94;;;20.85;94.20
28306;BME280;7516;43.570;1.448;2022-09-01T02:59:23;99660.50;;;20.87;94.18
28306;BME280;7516;43.570;1.448;2022-09-01T03:01:52;99660.28;;;20.89;94.38
28306;BME280;7516;43.570;1.448;2022-09-01T03:04:22;99658.88;;;20.86;93.43
28306;BME280;7516;43.570;1.448;2022-09-01T03:06:50;99657.84;;;20.87;93.83
28306;BME280;7516;43.570;1.448;2022-09-01T03:09:20;99649.66;;;20.77;94.33
28306;BME280;7516;43.570;1.448;2022-09-01T03:11:50;99657.19;;;20.80;93.75
28306;BME280;7516;43.570;1.448;2022-09-01T03:14:18;99660.47;;;20.71;94.51
28306;BME280;7516;43.570;1.448;2022-09-01T03:16:46;99659.19;;;20.73;93.24
28306;BME280;7516;43.570;1.448;2022-09-01T03:19:14;99667.44;;;20.72;94.57
28306;BME280;7516;43.570;1.448;2022-09-01T03:21:44;99659.66;;;20.70;94.64
28306;BME280;7516;43.570;1.448;2022-09-01T03:24:14;99669.50;;;20.70;93.92
28306;BME280;7516;43.570;1.448;2022-09-01T03:26:44;99664.53;;;20.73;94.10
28306;BME280;7516;43.570;1.448;2022-09-01T03:29:12;99664.03;;;20.76;93.32
28306;BME280;7516;43.570;1.448;2022-09-01T03:31:40;99662.91;;;20.72;94.32
28306;BME280;7516;43.570;1.448;2022-09-01T03:34:09;99663.38;;;20.69;93.87
28306;BME280;7516;43.570;1.448;2022-09-01T03:36:38;99665.00;;;20.70;94.47
28306;BME280;7516;43.570;1.448;2022-09-01T03:39:17;99660.00;;;20.74;94.17
28306;BME280;7516;43.570;1.448;2022-09-01T03:41:44;99655.97;;;20.71;93.63
28306;BME280;7516;43.570;1.448;2022-09-01T03:44:12;99657.16;;;20.63;94.83
28306;BME280;7516;43.570;1.448;2022-09-01T03:46:41;99650.78;;;20.64;95.07
28306;BME280;7516;43.570;1.448;2022-09-01T03:49:09;99647.78;;;20.61;94.85
28306;BME280;7516;43.570;1.448;2022-09-01T03:51:41;99658.44;;;20.61;94.24
28306;BME280;7516;43.570;1.448;2022-09-01T03:54:09;99648.38;;;20.63;94.34
28306;BME280;7516;43.570;1.448;2022-09-01T03:56:38;99650.22;;;20.62;94.59
28306;BME280;7516;43.570;1.448;2022-09-01T03:59:08;99653.44;;;20.64;94.59
28306;BME280;7516;43.570;1.448;2022-09-01T04:01:42;99647.91;;;20.66;94.01
28306;BME280;7516;43.570;1.448;2022-09-01T04:04:10;99642.31;;;20.67;94.11
28306;BME280;7516;43.570;1.448;2022-09-01T04:06:41;99639.97;;;20.71;93.99
28306;BME280;7516;43.570;1.448;2022-09-01T04:09:09;99634.06;;;20.69;94.08
28306;BME280;7516;43.570;1.448;2022-09-01T04:11:38;99624.72;;;20.67;94.06
28306;BME280;7516;43.570;1.448;2022-09-01T04:14:08;99628.19;;;20.67;93.98
28306;BME280;7516;43.570;1.448;2022-09-01T04:16:36;99626.00;;;20.64;94.81
28306;BME280;7516;43.570;1.448;2022-09-01T04:19:23;99626.25;;;20.62;94.00
28306;BME280;7516;43.570;1.448;2022-09-01T04:21:53;99628.50;;;20.54;94.34
28306;BME280;7516;43.570;1.448;2022-09-01T04:24:22;99627.06;;;20.63;94.28
28306;BME280;7516;43.570;1.448;2022-09-01T04:26:52;99618.66;;;20.54;93.82
28306;BME280;7516;43.570;1.448;2022-09-01T04:29:21;99618.66;;;20.54;94.20
28306;BME280;7516;43.570;1.448;2022-09-01T04:31:52;99626.06;;;20.52;93.71
28306;BME280;7516;43.570;1.448;2022-09-01T04:34:20;99621.47;;;20.48;94.43
28306;BME280;7516;43.570;1.448;2022-09-01T04:36:49;99630.34;;;20.53;94.46
28306;BME280;7516;43.570;1.448;2022-09-01T04:39:22;99620.41;;;20.49;94.27
28306;BME280;7516;43.570;1.448;2022-09-01T04:41:51;99618.66;;;20.54;94.04
28306;BME280;7516;43.570;1.448;2022-09-01T04:44:19;99613.78;;;20.51;94.21
28306;BME280;7516;43.570;1.448;2022-09-01T04:46:47;99609.78;;;20.49;93.96
28306;BME280;7516;43.570;1.448;2022-09-01T04:49:18;99614.97;;;20.44;94.19
28306;BME280;7516;43.570;1.448;2022-09-01T04:51:48;99616.53;;;20.40;94.67
28306;BME280;7516;43.570;1.448;2022-09-01T04:54:16;99614.66;;;20.40;95.02
28306;BME280;7516;43.570;1.448;2022-09-01T04:56:45;99615.38;;;20.36;95.06
28306;BME280;7516;43.570;1.448;2022-09-01T04:59:18;99614.22;;;20.32;95.24
28306;BME280;7516;43.570;1.448;2022-09-01T05:01:46;99615.81;;;20.33;95.89
28306;BME280;7516;43.570;1.448;2022-09-01T05:04:17;99611.28;;;20.33;95.81
28306;BME280;7516;43.570;1.448;2022-09-01T05:06:48;99609.34;;;20.28;94.98
28306;BME280;7516;43.570;1.448;2022-09-01T05:09:17;99612.09;;;20.34;95.63
28306;BME280;7516;43.570;1.448;2022-09-01T05:11:45;99608.44;;;20.35;95.23
28306;BME280;7516;43.570;1.448;2022-09-01T05:14:16;99613.16;;;20.33;95.47
28306;BME280;7516;43.570;1.448;2022-09-01T05:16:45;99610.84;;;20.24;95.44
28306;BME280;7516;43.570;1.448;2022-09-01T05:19:13;99609.75;;;20.20;96.00
28306;BME280;7516;43.570;1.448;2022-09-01T05:21:44;99608.69;;;20.21;95.79
28306;BME280;7516;43.570;1.448;2022-09-01T05:24:14;99604.41;;;20.20;95.21
28306;BME280;7516;43.570;1.448;2022-09-01T05:26:43;99608.81;;;20.15;95.76
28306;BME280;7516;43.570;1.448;2022-09-01T05:29:13;99619.47;;;20.15;96.14
28306;BME280;7516;43.570;1.448;2022-09-01T05:31:46;99612.19;;;20.10;96.47
28306;BME280;7516;43.570;1.448;2022-09-01T05:34:14;99618.78;;;20.08;95.98
28306;BME280;7516;43.570;1.448;2022-09-01T05:36:45;99622.25;;;20.08;96.60
28306;BME280;7516;43.570;1.448;2022-09-01T05:39:16;99616.63;;;20.05;96.38
28306;BME280;7516;43.570;1.448;2022-09-01T05:41:43;99619.13;;;20.11;95.90
28306;BME280;7516;43.570;1.448;2022-09-01T05:44:12;99623.75;;;20.16;96.74
28306;BME280;7516;43.570;1.448;2022-09-01T05:46:41;99622.84;;;20.10;96.58
28306;BME280;7516;43.570;1.448;2022-09-01T05:49:11;99622.38;;;20.13;95.96
28306;BME280;7516;43.570;1.448;2022-09-01T05:51:45;99623.19;;;20.14;96.45
28306;BME280;7516;43.570;1.448;2022-09-01T05:54:16;99620.53;;;20.14;95.95
28306;BME280;7516;43.570;1.448;2022-09-01T05:56:46;99624.22;;;20.13;96.66
28306;BME280;7516;43.570;1.448;2022-09-01T05:59:14;99619.34;;;20.21;96.99
28306;BME280;7516;43.570;1.448;2022-09-01T06:01:42;99619.66;;;20.25;97.57
28306;BME280;7516;43.570;1.448;2022-09-01T06:04:14;99614.22;;;20.32;97.36
28306;BME280;7516;43.570;1.448;2022-09-01T06:06:44;99617.34;;;20.40;96.89
28306;BME280;7516;43.570;1.448;2022-09-01T06:09:13;99615.44;;;20.41;96.07
28306;BME280;7516;43.570;1.448;2022-09-01T06:11:43;99618.22;;;20.46;97.07
28306;BME280;7516;43.570;1.448;2022-09-01T06:14:12;99621.88;;;20.56;96.06
28306;BME280;7516;43.570;1.448;2022-09-01T06:16:40;99620.09;;;20.62;95.45
28306;BME280;7516;43.570;1.448;2022-09-01T06:19:09;99622.63;;;20.69;94.75
28306;BME280;7516;43.570;1.448;2022-09-01T06:21:40;99628.19;;;20.67;94.68
28306;BME280;7516;43.570;1.448;2022-09-01T06:24:08;99622.63;;;20.69;94.78
28306;BME280;7516;43.570;1.448;2022-09-01T06:26:36;99620.28;;;20.72;94.88
28306;BME280;7516;43.570;1.448;2022-09-01T06:29:07;99624.00;;;20.71;94.50
28306;BME280;7516;43.570;1.448;2022-09-01T06:31:36;99620.06;;;20.74;94.01
28306;BME280;7516;43.570;1.448;2022-09-01T06:34:06;99627.31;;;20.78;93.38
28306;BME280;7516;43.570;1.448;2022-09-01T06:36:36;99621.03;;;20.84;93.21
28306;BME280;7516;43.570;1.448;2022-09-01T06:39:07;99615.59;;;20.79;93.58
28306;BME280;7516;43.570;1.448;2022-09-01T06:41:44;99625.16;;;20.92;93.33
28306;BME280;7516;43.570;1.448;2022-09-01T06:44:13;99626.50;;;20.94;93.12
28306;BME280;7516;43.570;1.448;2022-09-01T06:46:41;99625.56;;;21.00;92.76
28306;BME280;7516;43.570;1.448;2022-09-01T06:49:08;99629.19;;;21.11;92.25
28306;BME280;7516;43.570;1.448;2022-09-01T06:51:36;99626.44;;;21.06;91.92
28306;BME280;7516;43.570;1.448;2022-09-01T06:54:05;99626.09;;;21.02;91.73
28306;BME280;7516;43.570;1.448;2022-09-01T06:56:33;99620.41;;;21.11;91.42
28306;BME280;7516;43.570;1.448;2022-09-01T06:59:01;99625.88;;;21.04;91.07
28306;BME280;7516;43.570;1.448;2022-09-01T07:01:30;99626.91;;;21.03;91.67
28306;BME280;7516;43.570;1.448;2022-09-01T07:03:59;99621.44;;;21.10;90.12
28306;BME280;7516;43.570;1.448;2022-09-01T07:06:27;99623.81;;;21.23;90.29
28306;BME280;7516;43.570;1.448;2022-09-01T07:08:56;99631.81;;;21.23;89.77
28306;BME280;7516;43.570;1.448;2022-09-01T07:11:27;99635.03;;;21.25;89.14
28306;BME280;7516;43.570;1.448;2022-09-01T07:13:57;99633.09;;;21.20;89.47
28306;BME280;7516;43.570;1.448;2022-09-01T07:16:28;99617.56;;;21.34;88.48
28306;BME280;7516;43.570;1.448;2022-09-01T07:18:58;99618.16;;;21.36;88.38
28306;BME280;7516;43.570;1.448;2022-09-01T07:21:29;99621.63;;;21.36;88.46
28306;BME280;7516;43.570;1.448;2022-09-01T07:23:57;99613.19;;;21.45;87.60
28306;BME280;7516;43.570;1.448;2022-09-01T07:26:28;99616.91;;;21.44;85.99
28306;BME280;7516;43.570;1.448;2022-09-01T07:28:56;99610.13;;;21.53;86.29
28306;BME280;7516;43.570;1.448;2022-09-01T07:31:30;99612.75;;;21.69;85.72
28306;BME280;7516;43.570;1.448;2022-09-01T07:34:02;99619.44;;;21.72;84.96
28306;BME280;7516;43.570;1.448;2022-09-01T07:36:31;99615.97;;;21.71;84.90
28306;BME280;7516;43.570;1.448;2022-09-01T07:38:59;99610.94;;;21.75;84.86
28306;BME280;7516;43.570;1.448;2022-09-01T07:41:28;99619.44;;;21.72;84.01
28306;BME280;7516;43.570;1.448;2022-09-01T07:43:57;99617.16;;;21.81;83.89
28306;BME280;7516;43.570;1.448;2022-09-01T07:46:26;99617.53;;;21.89;83.48
28306;BME280;7516;43.570;1.448;2022-09-01T07:48:57;99626.63;;;21.93;82.43
28306;BME280;7516;43.570;1.448;2022-09-01T07:51:26;99625.53;;;21.89;82.50
28306;BME280;7516;43.570;1.448;2022-09-01T07:53:54;99627.31;;;21.84;81.81
28306;BME280;7516;43.570;1.448;2022-09-01T07:56:23;99627.66;;;21.87;81.82
28306;BME280;7516;43.570;1.448;2022-09-01T07:58:52;99630.94;;;21.94;82.66
28306;BME280;7516;43.570;1.448;2022-09-01T08:01:21;99626.81;;;22.03;81.88
28306;BME280;7516;43.570;1.448;2022-09-01T08:03:51;99626.69;;;22.15;81.42
28306;BME280;7516;43.570;1.448;2022-09-01T08:06:20;99625.72;;;22.26;80.88
28306;BME280;7516;43.570;1.448;2022-09-01T08:08:51;99620.38;;;22.26;81.20
28306;BME280;7516;43.570;1.448;2022-09-01T08:11:21;99618.06;;;22.35;80.82
28306;BME280;7516;43.570;1.448;2022-09-01T08:13:52;99625.28;;;22.34;80.44
28306;BME280;7516;43.570;1.448;2022-09-01T08:16:20;99623.22;;;22.41;80.83
28306;BME280;7516;43.570;1.448;2022-09-01T08:18:48;99619.50;;;22.42;79.37
28306;BME280;7516;43.570;1.448;2022-09-01T08:21:18;99615.25;;;22.46;79.90
28306;BME280;7516;43.570;1.448;2022-09-01T08:23:47;99611.53;;;22.47;78.71
28306;BME280;7516;43.570;1.448;2022-09-01T08:26:16;99618.28;;;22.55;78.92
28306;BME280;7516;43.570;1.448;2022-09-01T08:28:44;99615.34;;;22.57;78.68
28306;BME280;7516;43.570;1.448;2022-09-01T08:31:15;99611.09;;;22.61;79.34
28306;BME280;7516;43.570;1.448;2022-09-01T08:33:45;99612.38;;;22.53;78.79
28306;BME280;7516;43.570;1.448;2022-09-01T08:36:14;99614.06;;;22.59;79.41
28306;BME280;7516;43.570;1.448;2022-09-01T08:38:42;99615.41;;;22.62;79.27
28306;BME280;7516;43.570;1.448;2022-09-01T08:41:15;99607.47;;;22.72;78.87
28306;BME280;7516;43.570;1.448;2022-09-01T08:43:53;99618.78;;;22.79;77.22
28306;BME280;7516;43.570;1.448;2022-09-01T08:46:26;99620.28;;;22.70;77.56
28306;BME280;7516;43.570;1.448;2022-09-01T08:48:56;99616.97;;;22.84;77.60
28306;BME280;7516;43.570;1.448;2022-09-01T08:51:31;99618.16;;;22.99;76.27
28306;BME280;7516;43.570;1.448;2022-09-01T08:54:07;99617.94;;;23.05;77.34
28306;BME280;7516;43.570;1.448;2022-09-01T08:56:37;99618.81;;;23.16;76.01
28306;BME280;7516;43.570;1.448;2022-09-01T08:59:07;99622.22;;;23.06;75.57
28306;BME280;7516;43.570;1.448;2022-09-01T09:01:42;99621.94;;;23.03;75.67
28306;BME280;7516;43.570;1.448;2022-09-01T09:04:25;99627.09;;;23.14;75.35
28306;BME280;7516;43.570;1.448;2022-09-01T09:07:03;99620.75;;;23.20;74.44
28306;BME280;7516;43.570;1.448;2022-09-01T09:09:36;99619.47;;;23.33;74.42
28306;BME280;7516;43.570;1.448;2022-09-01T09:12:26;99621.09;;;23.34;73.46
28306;BME280;7516;43.570;1.448;2022-09-01T09:15:10;99619.84;;;23.47;73.44
28306;BME280;7516;43.570;1.448;2022-09-01T09:17:47;99618.91;;;23.63;73.08
28306;BME280;7516;43.570;1.448;2022-09-01T09:20:18;99614.09;;;23.70;72.62
28306;BME280;7516;43.570;1.448;2022-09-01T09:22:48;99614.63;;;23.67;72.30
28306;BME280;7516;43.570;1.448;2022-09-01T09:25:17;99627.19;;;23.61;71.96
28306;BME280;7516;43.570;1.448;2022-09-01T09:27:46;99623.69;;;23.56;71.44
28306;BME280;7516;43.570;1.448;2022-09-01T09:30:19;99616.53;;;23.72;71.53
28306;BME280;7516;43.570;1.448;2022-09-01T09:32:52;99619.00;;;23.88;71.21
28306;BME280;7516;43.570;1.448;2022-09-01T09:35:25;99611.75;;;23.79;70.86
28306;BME280;7516;43.570;1.448;2022-09-01T09:37:54;99603.16;;;23.72;71.32
28306;BME280;7516;43.570;1.448;2022-09-01T09:40:23;99603.47;;;23.80;71.04
28306;BME280;7516;43.570;1.448;2022-09-01T09:43:05;99603.19;;;23.82;72.14
28306;BME280;7516;43.570;1.448;2022-09-01T09:45:36;99603.72;;;23.84;72.11
28306;BME280;7516;43.570;1.448;2022-09-01T09:48:07;99602.66;;;23.85;72.00
28306;BME280;7516;43.570;1.448;2022-09-01T09:50:37;99601.88;;;23.89;70.08
28306;BME280;7516;43.570;1.448;2022-09-01T09:53:14;99600.84;;;23.95;71.82
28306;BME280;7516;43.570;1.448;2022-09-01T09:55:56;99604.06;;;24.02;70.12
28306;BME280;7516;43.570;1.448;2022-09-01T09:58:27;99606.78;;;24.13;69.83
28306;BME280;7516;43.570;1.448;2022-09-01T10:01:01;99602.44;;;24.01;69.64
28306;BME280;7516;43.570;1.448;2022-09-01T10:03:42;99614.09;;;24.27;69.58
28306;BME280;7516;43.570;1.448;2022-09-01T10:06:13;99610.13;;;24.55;69.32
28306;BME280;7516;43.570;1.448;2022-09-01T10:08:44;99603.72;;;24.61;68.36
28306;BME280;7516;43.570;1.448;2022-09-01T10:11:26;99606.09;;;24.43;67.66
28306;BME280;7516;43.570;1.448;2022-09-01T10:13:54;99606.88;;;24.33;68.27
28306;BME280;7516;43.570;1.448;2022-09-01T10:16:27;99599.13;;;24.47;67.68
28306;BME280;7516;43.570;1.448;2022-09-01T10:19:01;99593.78;;;24.52;67.94
28306;BME280;7516;43.570;1.448;2022-09-01T10:21:33;99596.72;;;24.55;67.08
28306;BME280;7516;43.570;1.448;2022-09-01T10:24:26;99580.66;;;24.60;67.47
28306;BME280;7516;43.570;1.448;2022-09-01T10:26:57;99578.78;;;24.76;66.63
28306;BME280;7516;43.570;1.448;2022-09-01T10:29:30;99569.38;;;24.84;66.05
28306;BME280;7516;43.570;1.448;2022-09-01T10:31:59;99579.03;;;24.90;64.85
28306;BME280;7516;43.570;1.448;2022-09-01T10:34:35;99571.53;;;24.82;64.72
28306;BME280;7516;43.570;1.448;2022-09-01T10:37:04;99565.13;;;24.98;65.23
28306;BME280;7516;43.570;1.448;2022-09-01T10:39:32;99567.00;;;25.02;64.76
28306;BME280;7516;43.570;1.448;2022-09-01T10:42:01;99556.25;;;25.13;65.09
28306;BME280;7516;43.570;1.448;2022-09-01T10:44:33;99557.34;;;25.06;64.80
28306;BME280;7516;43.570;1.448;2022-09-01T10:47:02;99560.28;;;24.69;65.77
28306;BME280;7516;43.570;1.448;2022-09-01T10:50:00;99550.34;;;24.50;66.16
28306;BME280;7516;43.570;1.448;2022-09-01T10:53:00;99548.47;;;24.55;66.21
28306;BME280;7516;43.570;1.448;2022-09-01T11:01:10;99541.00;;;24.62;66.52
28306;BME280;7516;43.570;1.448;2022-09-01T11:03:58;99539.38;;;24.56;65.50
28306;BME280;7516;43.570;1.448;2022-09-01T11:06:54;99538.28;;;24.67;66.02
28306;BME280;7516;43.570;1.448;2022-09-01T11:09:26;99540.97;;;24.78;65.91
28306;BME280;7516;43.570;1.448;2022-09-01T11:14:53;99532.38;;;24.81;65.55
28306;BME280;7516;43.570;1.448;2022-09-01T11:17:23;99531.06;;;24.78;65.33
28306;BME280;7516;43.570;1.448;2022-09-01T11:20:02;99533.47;;;24.85;65.53
28306;BME280;7516;43.570;1.448;2022-09-01T11:22:38;99520.34;;;24.78;65.45
28306;BME280;7516;43.570;1.448;2022-09-01T11:25:32;99519.50;;;24.72;65.60
28306;BME280;7516;43.570;1.448;2022-09-01T11:31:20;99510.91;;;25.11;65.08
28306;BME280;7516;43.570;1.448;2022-09-01T11:34:14;99508.50;;;24.99;63.93
28306;BME280;7516;43.570;1.448;2022-09-01T11:36:54;99503.44;;;24.98;64.08
28306;BME280;7516;43.570;1.448;2022-09-01T11:39:41;99501.53;;;25.03;64.34
28306;BME280;7516;43.570;1.448;2022-09-01T11:42:15;99498.31;;;25.11;64.15
28306;BME280;7516;43.570;1.448;2022-09-01T11:44:48;99494.78;;;25.21;63.22
28306;BME280;7516;43.570;1.448;2022-09-01T11:47:20;99499.84;;;25.28;62.82
28306;BME280;7516;43.570;1.448;2022-09-01T11:49:52;99490.47;;;25.25;63.33
28306;BME280;7516;43.570;1.448;2022-09-01T11:52:23;99478.63;;;25.41;63.17
28306;BME280;7516;43.570;1.448;2022-09-01T11:54:53;99482.31;;;25.56;62.75
28306;BME280;7516;43.570;1.448;2022-09-01T11:57:24;99481.78;;;25.54;62.59
28306;BME280;7516;43.570;1.448;2022-09-01T11:59:53;99486.09;;;25.44;62.52
28306;BME280;7516;43.570;1.448;2022-09-01T12:02:24;99472.09;;;25.58;62.93
28306;BME280;7516;43.570;1.448;2022-09-01T12:04:52;99483.91;;;25.62;61.70
28306;BME280;7516;43.570;1.448;2022-09-01T12:07:29;99483.91;;;25.52;61.81
28306;BME280;7516;43.570;1.448;2022-09-01T12:10:01;99476.16;;;25.50;62.10
28306;BME280;7516;43.570;1.448;2022-09-01T12:12:31;99480.16;;;25.58;61.65
28306;BME280;7516;43.570;1.448;2022-09-01T12:15:00;99480.94;;;25.63;61.36
28306;BME280;7516;43.570;1.448;2022-09-01T12:17:29;99482.75;;;25.78;61.25
28306;BME280;7516;43.570;1.448;2022-09-01T12:22:42;99473.00;;;25.92;60.26
28306;BME280;7516;43.570;1.448;2022-09-01T12:25:18;99470.34;;;25.87;60.31
28306;BME280;7516;43.570;1.448;2022-09-01T12:27:48;99467.59;;;25.97;59.46
28306;BME280;7516;43.570;1.448;2022-09-01T12:30:16;99469.72;;;26.00;59.45
28306;BME280;7516;43.570;1.448;2022-09-01T12:32:44;99460.53;;;26.06;59.99
28306;BME280;7516;43.570;1.448;2022-09-01T12:35:16;99458.34;;;26.13;59.83
28306;BME280;7516;43.570;1.448;2022-09-01T12:37:47;99462.84;;;26.23;59.16
28306;BME280;7516;43.570;1.448;2022-09-01T12:40:31;99454.53;;;26.19;59.05
28306;BME280;7516;43.570;1.448;2022-09-01T12:42:59;99450.19;;;26.29;59.71
28306;BME280;7516;43.570;1.448;2022-09-01T12:45:41;99450.25;;;26.52;59.44
28306;BME280;7516;43.570;1.448;2022-09-01T12:48:23;99444.59;;;26.54;58.68
28306;BME280;7516;43.570;1.448;2022-09-01T12:50:52;99448.56;;;26.62;57.92
28306;BME280;7516;43.570;1.448;2022-09-01T12:53:26;99432.88;;;26.69;57.63
28306;BME280;7516;43.570;1.448;2022-09-01T12:59:05;99437.97;;;26.70;56.70
28306;BME280;7516;43.570;1.448;2022-09-01T13:01:34;99438.25;;;26.69;56.63
28306;BME280;7516;43.570;1.448;2022-09-01T13:04:23;99435.63;;;26.64;56.58
28306;BME280;7516;43.570;1.448;2022-09-01T13:06:53;99433.94;;;26.73;55.96
28306;BME280;7516;43.570;1.448;2022-09-01T13:09:21;99430.16;;;26.74;56.37
28306;BME280;7516;43.570;1.448;2022-09-01T13:11:50;99421.84;;;26.70;54.84
28306;BME280;7516;43.570;1.448;2022-09-01T13:14:17;99427.69;;;26.77;55.29
28306;BME280;7516;43.570;1.448;2022-09-01T13:16:45;99423.34;;;26.81;55.95
28306;BME280;7516;43.570;1.448;2022-09-01T13:19:13;99418.34;;;26.99;55.64
28306;BME280;7516;43.570;1.448;2022-09-01T13:21:40;99420.88;;;27.32;55.08
28306;BME280;7516;43.570;1.448;2022-09-01T13:24:08;99423.16;;;27.44;53.80
28306;BME280;7516;43.570;1.448;2022-09-01T13:26:35;99413.50;;;27.38;53.92
28306;BME280;7516;43.570;1.448;2022-09-01T13:29:04;99417.09;;;27.33;53.86
28306;BME280;7516;43.570;1.448;2022-09-01T13:31:32;99409.50;;;27.35;53.46
28306;BME280;7516;43.570;1.448;2022-09-01T13:33:59;99406.38;;;27.47;53.61
28306;BME280;7516;43.570;1.448;2022-09-01T13:36:27;99413.94;;;27.45;52.78
28306;BME280;7516;43.570;1.448;2022-09-01T13:38:54;99404.22;;;27.49;53.52
28306;BME280;7516;43.570;1.448;2022-09-01T13:41:22;99402.84;;;27.52;52.90
28306;BME280;7516;43.570;1.448;2022-09-01T13:43:49;99392.88;;;27.71;53.25
28306;BME280;7516;43.570;1.448;2022-09-01T13:46:18;99392.28;;;27.93;52.93
28306;BME280;7516;43.570;1.448;2022-09-01T13:48:46;99378.94;;;28.01;52.40